createdAt,value
2018-02-15T00:01:27.895Z,21.70
2018-02-15T00:11:29.496Z,21.50
2018-02-15T00:21:31.046Z,26.47
2018-02-15T00:31:32.643Z,24.90
2018-02-15T00:41:34.164Z,25.40
2018-02-15T00:51:36.991Z,26.60
2018-02-15T01:01:39.170Z,25.80
2018-02-15T01:11:40.688Z,25.43
2018-02-15T01:21:42.317Z,30.43
2018-02-15T01:31:43.990Z,30.77
2018-02-15T01:41:45.491Z,28.60
2018-02-15T01:51:47.057Z,28.23
2018-02-15T02:01:49.368Z,26.93
2018-02-15T02:11:50.873Z,29.23
2018-02-15T02:21:53.280Z,30.47
2018-02-15T02:31:54.808Z,31.03
2018-02-15T02:41:56.321Z,30.40
2018-02-15T02:51:57.939Z,30.50
2018-02-15T03:01:59.518Z,29.97
2018-02-15T03:12:01.047Z,27.30
2018-02-15T03:22:02.577Z,27.77
2018-02-15T03:32:04.123Z,29.47
2018-02-15T03:42:05.640Z,28.87
2018-02-15T03:52:07.202Z,26.70
2018-02-15T04:02:08.754Z,28.77
2018-02-15T04:12:10.295Z,26.87
2018-02-15T04:22:12.623Z,27.03
2018-02-15T04:32:14.206Z,27.60
2018-02-15T04:42:16.485Z,24.13
2018-02-15T04:52:18.005Z,26.80
2018-02-15T05:02:19.559Z,26.27
2018-02-15T05:12:21.067Z,25.57
2018-02-15T05:22:22.590Z,25.67
2018-02-15T05:32:24.689Z,26.30
2018-02-15T05:42:26.290Z,23.00
2018-02-15T05:52:27.816Z,25.63
2018-02-15T06:02:29.424Z,26.40
2018-02-15T06:12:30.910Z,25.10
2018-02-15T06:22:32.457Z,24.40
2018-02-15T06:32:33.958Z,24.93
2018-02-15T06:42:35.485Z,23.73
2018-02-15T06:52:37.116Z,21.53
2018-02-15T07:02:39.091Z,21.50
2018-02-15T07:12:40.658Z,22.70
2018-02-15T07:22:42.985Z,22.10
2018-02-15T07:32:45.213Z,18.43
2018-02-15T07:42:46.801Z,16.43
2018-02-15T07:52:48.334Z,16.40
2018-02-15T08:02:49.990Z,19.47
2018-02-15T08:12:52.426Z,21.47
2018-02-15T08:22:54.103Z,20.07
2018-02-15T08:32:56.525Z,21.80
2018-02-15T08:42:58.821Z,22.97
2018-02-15T08:53:00.553Z,21.60
2018-02-15T09:03:02.809Z,21.47
2018-02-15T09:13:04.343Z,21.17
2018-02-15T09:23:05.958Z,22.17
2018-02-15T09:33:08.253Z,22.40
2018-02-15T09:43:09.818Z,19.73
2018-02-15T09:53:11.370Z,19.50
2018-02-15T10:03:12.936Z,19.23
2018-02-15T10:13:14.496Z,18.30
2018-02-15T10:23:15.996Z,18.80
2018-02-15T10:33:17.520Z,17.57
2018-02-15T10:43:19.316Z,26.40
2018-02-15T10:53:20.863Z,19.87
2018-02-15T11:03:28.461Z,19.90
2018-02-15T11:13:30.032Z,18.20
2018-02-15T11:23:32.321Z,19.90
2018-02-15T11:33:33.824Z,18.60
2018-02-15T11:43:35.388Z,20.00
2018-02-15T11:53:36.930Z,18.67
2018-02-15T12:03:38.449Z,21.50
2018-02-15T12:13:40.719Z,19.37
2018-02-15T12:23:42.265Z,20.63
2018-02-15T12:33:44.505Z,23.73
2018-02-15T12:43:46.070Z,23.77
2018-02-15T12:53:48.332Z,23.87
2018-02-15T13:03:49.908Z,24.27
2018-02-15T13:13:51.549Z,27.47
2018-02-15T13:23:53.161Z,27.03
2018-02-15T13:33:54.727Z,28.87
2018-02-15T13:43:56.280Z,39.50
2018-02-15T13:53:57.805Z,30.30
2018-02-15T14:03:59.307Z,27.73
2018-02-15T14:14:00.828Z,28.10
2018-02-15T14:24:02.549Z,31.67
2018-02-15T14:34:04.081Z,32.90
2018-02-15T14:44:07.205Z,33.10
2018-02-15T14:54:08.981Z,31.47
2018-02-15T15:04:10.544Z,34.93
2018-02-15T15:14:12.865Z,31.10
2018-02-15T15:24:14.426Z,33.10
2018-02-15T15:34:15.985Z,31.63
2018-02-15T15:44:17.669Z,31.43
2018-02-15T15:54:19.285Z,31.93
2018-02-15T16:04:21.073Z,28.60
2018-02-15T16:14:22.698Z,30.47
2018-02-15T16:24:24.311Z,34.80
2018-02-15T16:34:25.974Z,32.07
2018-02-15T16:44:27.606Z,32.17
2018-02-15T16:54:29.136Z,33.93
2018-02-15T17:04:30.673Z,33.17
2018-02-15T17:14:33.049Z,29.23
2018-02-15T17:24:34.710Z,28.00
2018-02-15T17:34:36.309Z,32.87
2018-02-15T17:44:37.858Z,34.50
2018-02-15T17:54:39.503Z,31.87
2018-02-15T18:04:41.044Z,31.17
2018-02-15T18:14:43.270Z,33.30
2018-02-15T18:24:44.856Z,32.10
2018-02-15T18:34:46.605Z,31.63
2018-02-15T18:44:48.902Z,32.00
2018-02-15T18:54:50.481Z,31.87
2018-02-15T19:04:52.176Z,32.60
2018-02-15T19:14:53.954Z,33.63
2018-02-15T19:24:55.544Z,31.13
2018-02-15T19:34:57.944Z,29.90
2018-02-15T19:44:59.612Z,28.03
2018-02-15T19:55:01.165Z,29.57
2018-02-15T20:05:03.486Z,36.60
2018-02-15T20:15:05.840Z,37.57
2018-02-15T20:25:08.580Z,28.23
2018-02-15T20:35:10.201Z,31.10
2018-02-15T20:45:11.719Z,31.27
2018-02-15T20:55:20.172Z,29.13
2018-02-15T21:05:22.774Z,31.83
2018-02-15T21:15:24.416Z,30.87
2018-02-15T21:25:26.768Z,32.10
2018-02-15T21:35:28.401Z,32.07
2018-02-15T21:45:29.933Z,33.67
2018-02-15T21:55:40.593Z,31.83
2018-02-15T22:05:42.421Z,31.47
2018-02-15T22:15:43.980Z,27.60
2018-02-15T22:25:45.819Z,27.77
2018-02-15T22:35:47.469Z,27.60
2018-02-15T22:45:49.722Z,30.00
2018-02-15T22:55:51.260Z,28.93
2018-02-15T23:05:52.830Z,24.37
2018-02-15T23:15:54.447Z,25.97
2018-02-15T23:25:56.168Z,26.60
2018-02-15T23:35:57.769Z,25.90
2018-02-15T23:45:59.439Z,23.93
2018-02-15T23:56:00.994Z,26.90
